createdAt,value
2019-04-05T00:00:08.357Z,0.9460
2019-04-05T00:00:18.531Z,0.9445
2019-04-05T00:00:30.319Z,0.9471
2019-04-05T00:00:42.213Z,0.9459
2019-04-05T00:00:52.413Z,0.9451
2019-04-05T00:01:03.577Z,0.9494
2019-04-05T00:01:14.747Z,0.9508
2019-04-05T00:01:26.019Z,0.9542
2019-04-05T00:01:37.167Z,0.9567
2019-04-05T00:01:51.203Z,0.9591
2019-04-05T00:02:02.347Z,0.9611
2019-04-05T00:02:16.200Z,0.9666
2019-04-05T00:02:27.435Z,0.9688
2019-04-05T00:02:38.591Z,0.9739
2019-04-05T00:02:49.752Z,0.9810
2019-04-05T00:03:00.911Z,0.9947
2019-04-05T00:03:12.065Z,1.0154
2019-04-05T00:03:23.217Z,1.0345
2019-04-05T00:03:34.373Z,1.0468
2019-04-05T00:03:45.541Z,1.0583
2019-04-05T00:03:55.719Z,1.0800
2019-04-05T00:04:06.871Z,1.0927
2019-04-05T00:04:18.022Z,1.1031
2019-04-05T00:04:29.189Z,1.1131
2019-04-05T00:04:40.339Z,1.1191
2019-04-05T00:04:51.577Z,1.1235
2019-04-05T00:05:01.732Z,1.1213
2019-04-05T00:05:11.940Z,1.1228
2019-04-05T00:05:23.111Z,1.1183
2019-04-05T00:05:34.259Z,1.1098
2019-04-05T00:05:45.409Z,1.1001
2019-04-05T00:05:56.574Z,1.0903
2019-04-05T00:06:07.749Z,1.0803
2019-04-05T00:06:18.909Z,1.0689
2019-04-05T00:06:30.058Z,1.0592
2019-04-05T00:06:41.242Z,1.0532
2019-04-05T00:06:52.423Z,1.0490
2019-04-05T00:07:03.587Z,1.0456
2019-04-05T00:07:14.743Z,1.0396
2019-04-05T00:07:25.889Z,1.0282
2019-04-05T00:07:37.107Z,1.0160
2019-04-05T00:07:48.259Z,1.0045
2019-04-05T00:07:59.518Z,0.9922
2019-04-05T00:08:10.663Z,0.9818
2019-04-05T00:08:21.821Z,0.9748
2019-04-05T00:08:32.989Z,0.9710
2019-04-05T00:08:44.158Z,0.9695
2019-04-05T00:08:55.317Z,0.9651
2019-04-05T00:09:06.463Z,0.9634
2019-04-05T00:09:17.638Z,0.9625
2019-04-05T00:09:28.919Z,0.9604
2019-04-05T00:09:40.113Z,0.9604
2019-04-05T00:09:51.359Z,0.9618
2019-04-05T00:10:02.562Z,0.9626
2019-04-05T00:10:13.711Z,0.9668
2019-04-05T00:10:24.858Z,0.9729
2019-04-05T00:10:36.000Z,0.9846
2019-04-05T00:10:47.171Z,0.9986
2019-04-05T00:10:58.347Z,1.0145
2019-04-05T00:11:09.499Z,1.0253
2019-04-05T00:11:20.640Z,1.0347
2019-04-05T00:11:31.779Z,1.0408
2019-04-05T00:11:42.941Z,1.0496
2019-04-05T00:11:54.089Z,1.0563
2019-04-05T00:12:05.236Z,1.0793
2019-04-05T00:12:16.399Z,1.1015
2019-04-05T00:12:27.569Z,1.1153
2019-04-05T00:12:38.728Z,1.1291
2019-04-05T00:12:49.880Z,1.1371
2019-04-05T00:13:01.403Z,1.1267
2019-04-05T00:13:11.593Z,1.1172
2019-04-05T00:13:22.741Z,1.1120
2019-04-05T00:13:33.903Z,1.0994
2019-04-05T00:13:45.059Z,1.0891
2019-04-05T00:13:56.209Z,1.0826
2019-04-05T00:14:07.353Z,1.0736
2019-04-05T00:14:18.499Z,1.0650
2019-04-05T00:14:29.759Z,1.0590
2019-04-05T00:14:40.916Z,1.0568
2019-04-05T00:14:52.103Z,1.0528
2019-04-05T00:15:14.613Z,1.0544
2019-04-05T00:15:19.447Z,1.0512
2019-04-05T00:15:30.603Z,1.0564
2019-04-05T00:15:41.803Z,1.0583
2019-04-05T00:15:52.967Z,1.0594
2019-04-05T00:16:04.133Z,1.0610
2019-04-05T00:16:15.307Z,1.0612
2019-04-05T00:16:26.463Z,1.0676
2019-04-05T00:16:37.616Z,1.0710
2019-04-05T00:16:48.783Z,1.0759
2019-04-05T00:16:59.929Z,1.0795
2019-04-05T00:17:11.092Z,1.0793
2019-04-05T00:17:22.270Z,1.0773
2019-04-05T00:17:33.553Z,1.0769
2019-04-05T00:17:44.736Z,1.0760
2019-04-05T00:17:55.940Z,1.0717
2019-04-05T00:18:07.109Z,1.0717
2019-04-05T00:18:18.269Z,1.0660
2019-04-05T00:18:29.421Z,1.0628
2019-04-05T00:18:40.597Z,1.0575
2019-04-05T00:18:51.747Z,1.0557
2019-04-05T00:19:01.920Z,1.0525
2019-04-05T00:19:13.077Z,1.0512
2019-04-05T00:19:24.236Z,1.0499
2019-04-05T00:19:34.391Z,1.0477
2019-04-05T00:19:45.618Z,1.0465
2019-04-05T00:19:56.777Z,1.0443
2019-04-05T00:20:07.937Z,1.0456
2019-04-05T00:20:19.081Z,1.0495
2019-04-05T00:20:30.257Z,1.0615
2019-04-05T00:20:41.449Z,1.0740
2019-04-05T00:20:52.597Z,1.0902
2019-04-05T00:21:03.757Z,1.1086
2019-04-05T00:21:14.923Z,1.1218
2019-04-05T00:21:26.073Z,1.1406
2019-04-05T00:21:37.251Z,1.1566
2019-04-05T00:21:48.426Z,1.1805
2019-04-05T00:21:59.582Z,1.2062
2019-04-05T00:22:10.736Z,1.2283
2019-04-05T00:22:21.893Z,1.2398
2019-04-05T00:22:33.067Z,1.2539
2019-04-05T00:22:44.212Z,1.2659
2019-04-05T00:22:55.361Z,1.2742
2019-04-05T00:23:06.514Z,1.2818
2019-04-05T00:23:17.669Z,1.2841
2019-04-05T00:23:28.819Z,1.2888
2019-04-05T00:23:39.970Z,1.2934
2019-04-05T00:23:51.170Z,1.2947
2019-04-05T00:24:02.319Z,1.2962
2019-04-05T00:24:13.479Z,1.2980
2019-04-05T00:24:24.624Z,1.3021
2019-04-05T00:24:35.781Z,1.3048
2019-04-05T00:24:46.941Z,1.3076
2019-04-05T00:24:58.109Z,1.3176
2019-04-05T00:25:09.267Z,1.3214
2019-04-05T00:25:20.421Z,1.3253
2019-04-05T00:25:31.580Z,1.3264
2019-04-05T00:25:42.768Z,1.3301
2019-04-05T00:25:52.917Z,1.3309
2019-04-05T00:26:04.099Z,1.3367
2019-04-05T00:26:14.259Z,1.3371
2019-04-05T00:26:25.429Z,1.3415
2019-04-05T00:26:36.603Z,1.3410
2019-04-05T00:26:46.760Z,1.3440
2019-04-05T00:26:57.947Z,1.3492
2019-04-05T00:27:09.112Z,1.3503
2019-04-05T00:27:20.261Z,1.3523
2019-04-05T00:27:31.439Z,1.3520
2019-04-05T00:27:42.591Z,1.3539
2019-04-05T00:27:53.891Z,1.3567
2019-04-05T00:28:05.054Z,1.3586
2019-04-05T00:28:16.264Z,1.3602
2019-04-05T00:28:26.409Z,1.3595
2019-04-05T00:28:37.561Z,1.3604
2019-04-05T00:28:51.549Z,1.3597
2019-04-05T00:29:02.987Z,1.3560
2019-04-05T00:29:14.138Z,1.3584
2019-04-05T00:29:24.301Z,1.3594
2019-04-05T00:29:35.478Z,1.3623
2019-04-05T00:29:46.649Z,1.3605
2019-04-05T00:29:57.810Z,1.3571
2019-04-05T00:30:08.973Z,1.3562
2019-04-05T00:30:20.128Z,1.3541
2019-04-05T00:30:31.270Z,1.3533
2019-04-05T00:30:42.464Z,1.3544
2019-04-05T00:30:53.619Z,1.3513
2019-04-05T00:31:03.774Z,1.3516
2019-04-05T00:31:14.922Z,1.3555
2019-04-05T00:31:26.068Z,1.3525
2019-04-05T00:31:37.209Z,1.3474
2019-04-05T00:31:48.364Z,1.3419
2019-04-05T00:31:59.527Z,1.3353
2019-04-05T00:32:10.679Z,1.3300
2019-04-05T00:32:21.857Z,1.3237
2019-04-05T00:32:33.015Z,1.3136
2019-04-05T00:32:44.177Z,1.3004
2019-04-05T00:32:55.327Z,1.2901
2019-04-05T00:33:06.497Z,1.2730
2019-04-05T00:33:17.677Z,1.2577
2019-04-05T00:33:28.832Z,1.2346
2019-04-05T00:33:39.998Z,1.2201
2019-04-05T00:33:51.144Z,1.2031
2019-04-05T00:34:02.289Z,1.1842
2019-04-05T00:34:13.469Z,1.1630
2019-04-05T00:34:24.610Z,1.1490
2019-04-05T00:34:35.787Z,1.1341
2019-04-05T00:34:47.043Z,1.1171
2019-04-05T00:34:57.212Z,1.1056
2019-04-05T00:35:08.387Z,1.0931
2019-04-05T00:35:19.549Z,1.0826
2019-04-05T00:35:29.727Z,1.0758
2019-04-05T00:35:40.913Z,1.0636
2019-04-05T00:35:52.061Z,1.0544
2019-04-05T00:36:03.229Z,1.0479
2019-04-05T00:36:14.383Z,1.0423
2019-04-05T00:36:25.543Z,1.0362
2019-04-05T00:36:36.700Z,1.0343
2019-04-05T00:36:47.941Z,1.0284
2019-04-05T00:36:59.092Z,1.0251
2019-04-05T00:37:10.253Z,1.0198
2019-04-05T00:37:21.427Z,1.0165
2019-04-05T00:37:32.569Z,1.0140
2019-04-05T00:37:43.723Z,1.0113
2019-04-05T00:37:54.894Z,1.0105
2019-04-05T00:38:06.058Z,1.0056
2019-04-05T00:38:17.230Z,1.0026
2019-04-05T00:38:28.389Z,1.0007
2019-04-05T00:38:39.529Z,0.9988
2019-04-05T00:38:50.687Z,0.9969
2019-04-05T00:39:01.845Z,0.9973
2019-04-05T00:39:12.999Z,0.9946
2019-04-05T00:39:24.143Z,0.9980
2019-04-05T00:39:35.307Z,0.9968
2019-04-05T00:39:46.468Z,0.9949
2019-04-05T00:39:57.617Z,0.9926
2019-04-05T00:40:07.778Z,0.9918
2019-04-05T00:40:18.937Z,0.9948
2019-04-05T00:40:29.122Z,0.9945
2019-04-05T00:40:40.260Z,0.9964
2019-04-05T00:40:51.419Z,0.9927
2019-04-05T00:41:02.577Z,0.9928
2019-04-05T00:41:13.760Z,0.9944
2019-04-05T00:41:24.909Z,0.9942
2019-04-05T00:41:36.067Z,0.9960
2019-04-05T00:41:47.220Z,0.9980
2019-04-05T00:41:58.400Z,0.9980
2019-04-05T00:42:09.561Z,0.9940
2019-04-05T00:42:20.718Z,0.9927
2019-04-05T00:42:31.877Z,0.9888
2019-04-05T00:42:43.079Z,0.9854
2019-04-05T00:42:54.256Z,0.9827
2019-04-05T00:43:05.454Z,0.9790
2019-04-05T00:43:16.602Z,0.9762
2019-04-05T00:43:27.750Z,0.9748
2019-04-05T00:43:38.891Z,0.9715
2019-04-05T00:43:50.044Z,0.9700
2019-04-05T00:44:00.208Z,0.9693
2019-04-05T00:44:11.392Z,0.9681
2019-04-05T00:44:22.542Z,0.9692
2019-04-05T00:44:33.707Z,0.9697
2019-04-05T00:44:44.871Z,0.9698
2019-04-05T00:44:56.017Z,0.9710
2019-04-05T00:45:07.174Z,0.9741
2019-04-05T00:45:27.986Z,0.9766
2019-04-05T00:45:34.459Z,0.9744
2019-04-05T00:45:45.638Z,0.9804
2019-04-05T00:45:56.793Z,0.9853
2019-04-05T00:46:07.939Z,0.9924
2019-04-05T00:46:19.081Z,0.9969
2019-04-05T00:46:30.242Z,1.0023
2019-04-05T00:46:41.419Z,1.0067
2019-04-05T00:46:52.578Z,1.0094
2019-04-05T00:47:03.721Z,1.0160
2019-04-05T00:47:14.867Z,1.0180
2019-04-05T00:47:26.009Z,1.0239
2019-04-05T00:47:37.170Z,1.0286
2019-04-05T00:47:48.339Z,1.0368
2019-04-05T00:47:59.547Z,1.0403
2019-04-05T00:48:10.700Z,1.0479
2019-04-05T00:48:21.888Z,1.0589
2019-04-05T00:48:33.077Z,1.0750
2019-04-05T00:48:44.235Z,1.0898
2019-04-05T00:48:55.379Z,1.0994
2019-04-05T00:49:06.549Z,1.1110
2019-04-05T00:49:17.689Z,1.1172
2019-04-05T00:49:28.840Z,1.1273
2019-04-05T00:49:39.990Z,1.1406
2019-04-05T00:49:51.288Z,1.1509
2019-04-05T00:50:02.443Z,1.1617
2019-04-05T00:50:13.591Z,1.1828
2019-04-05T00:50:24.741Z,1.2033
2019-04-05T00:50:35.899Z,1.2189
2019-04-05T00:50:47.051Z,1.2289
2019-04-05T00:50:58.218Z,1.2380
2019-04-05T00:51:09.362Z,1.2485
2019-04-05T00:51:20.499Z,1.2600
2019-04-05T00:51:31.672Z,1.2678
2019-04-05T00:51:42.813Z,1.2797
2019-04-05T00:51:53.979Z,1.2899
2019-04-05T00:52:05.138Z,1.2994
2019-04-05T00:52:16.297Z,1.3091
2019-04-05T00:52:27.467Z,1.3188
2019-04-05T00:52:38.633Z,1.3231
2019-04-05T00:52:49.778Z,1.3299
2019-04-05T00:53:00.925Z,1.3330
2019-04-05T00:53:12.071Z,1.3339
2019-04-05T00:53:23.233Z,1.3354
2019-04-05T00:53:33.389Z,1.3369
2019-04-05T00:53:44.548Z,1.3386
2019-04-05T00:53:54.717Z,1.3383
2019-04-05T00:54:05.876Z,1.3383
2019-04-05T00:54:17.026Z,1.3379
2019-04-05T00:54:28.197Z,1.3389
2019-04-05T00:54:39.343Z,1.3410
2019-04-05T00:54:50.502Z,1.3420
2019-04-05T00:55:01.650Z,1.3427
2019-04-05T00:55:11.816Z,1.3450
2019-04-05T00:55:21.988Z,1.3489
2019-04-05T00:55:32.179Z,1.3509
2019-04-05T00:55:42.337Z,1.3472
2019-04-05T00:55:53.491Z,1.3431
2019-04-05T00:56:04.657Z,1.3388
2019-04-05T00:56:15.799Z,1.3351
2019-04-05T00:56:25.953Z,1.3325
2019-04-05T00:56:37.102Z,1.3323
2019-04-05T00:56:48.273Z,1.3279
2019-04-05T00:56:59.432Z,1.3227
2019-04-05T00:57:10.700Z,1.3161
2019-04-05T00:57:21.859Z,1.3023
2019-04-05T00:57:33.007Z,1.2906
2019-04-05T00:57:43.197Z,1.2702
2019-04-05T00:57:54.370Z,1.2599
2019-04-05T00:58:05.521Z,1.2406
2019-04-05T00:58:16.693Z,1.2302
2019-04-05T00:58:27.857Z,1.2143
2019-04-05T00:58:39.011Z,1.1943
2019-04-05T00:58:50.164Z,1.1764
2019-04-05T00:59:01.343Z,1.1572
2019-04-05T00:59:12.493Z,1.1452
2019-04-05T00:59:23.657Z,1.1313
2019-04-05T00:59:34.804Z,1.1151
2019-04-05T00:59:46.039Z,1.1011
2019-04-05T00:59:57.208Z,1.0877
2019-04-05T01:00:08.372Z,1.0793
2019-04-05T01:00:18.542Z,1.0728
2019-04-05T01:00:29.687Z,1.0697
2019-04-05T01:00:40.842Z,1.0603
2019-04-05T01:00:51.990Z,1.0624
2019-04-05T01:01:03.165Z,1.0709
2019-04-05T01:01:14.349Z,1.0803
2019-04-05T01:01:25.491Z,1.0901
2019-04-05T01:01:36.640Z,1.1084
2019-04-05T01:01:47.799Z,1.1156
2019-04-05T01:01:58.963Z,1.1291
2019-04-05T01:02:10.143Z,1.1421
2019-04-05T01:02:21.293Z,1.1519
2019-04-05T01:02:32.463Z,1.1615
2019-04-05T01:02:43.623Z,1.1717
2019-04-05T01:02:54.772Z,1.1826
2019-04-05T01:03:05.928Z,1.1907
2019-04-05T01:03:17.077Z,1.1947
2019-04-05T01:03:27.230Z,1.1995
2019-04-05T01:03:38.380Z,1.2108
2019-04-05T01:03:49.534Z,1.2160
2019-04-05T01:04:00.689Z,1.2185
2019-04-05T01:04:11.863Z,1.2221
2019-04-05T01:04:23.035Z,1.2264
2019-04-05T01:04:34.193Z,1.2293
2019-04-05T01:04:45.357Z,1.2316
2019-04-05T01:04:56.511Z,1.2327
2019-04-05T01:05:07.665Z,1.2354
2019-04-05T01:05:18.802Z,1.2343
2019-04-05T01:05:29.982Z,1.2343
2019-04-05T01:05:41.152Z,1.2332
2019-04-05T01:05:51.302Z,1.2323
2019-04-05T01:06:02.479Z,1.2347
2019-04-05T01:06:13.654Z,1.2328
2019-04-05T01:06:24.844Z,1.2326
2019-04-05T01:06:36.006Z,1.2309
2019-04-05T01:06:46.163Z,1.2288
2019-04-05T01:06:57.334Z,1.2280
2019-04-05T01:07:07.489Z,1.2224
2019-04-05T01:07:18.641Z,1.2176
2019-04-05T01:07:29.793Z,1.2031
2019-04-05T01:07:40.939Z,1.1910
2019-04-05T01:07:52.105Z,1.1824
2019-04-05T01:08:03.260Z,1.1672
2019-04-05T01:08:14.545Z,1.1572
2019-04-05T01:08:26.688Z,1.1498
2019-04-05T01:08:36.841Z,1.1444
2019-04-05T01:08:47.996Z,1.1418
2019-04-05T01:08:58.159Z,1.1323
2019-04-05T01:09:09.433Z,1.1273
2019-04-05T01:09:23.188Z,1.1177
2019-04-05T01:09:34.370Z,1.1061
2019-04-05T01:09:44.561Z,1.0967
2019-04-05T01:09:54.749Z,1.0911
2019-04-05T01:10:05.898Z,1.0857
2019-04-05T01:10:16.085Z,1.0753
2019-04-05T01:10:26.331Z,1.0706
2019-04-05T01:10:37.539Z,1.0636
2019-04-05T01:10:48.687Z,1.0541
2019-04-05T01:10:59.837Z,1.0490
2019-04-05T01:11:10.990Z,1.0435
2019-04-05T01:11:29.064Z,1.0382
2019-04-05T01:11:40.225Z,1.0169
2019-04-05T01:11:51.388Z,1.0162
2019-04-05T01:12:02.561Z,1.0129
2019-04-05T01:12:13.713Z,1.0065
2019-04-05T01:12:24.879Z,1.0052
2019-04-05T01:12:36.030Z,0.9999
2019-04-05T01:12:47.188Z,1.0001
2019-04-05T01:12:58.329Z,1.0006
2019-04-05T01:13:09.488Z,0.9975
2019-04-05T01:13:20.655Z,0.9986
2019-04-05T01:13:31.803Z,0.9988
2019-04-05T01:13:42.964Z,0.9984
2019-04-05T01:13:54.191Z,1.0029
2019-04-05T01:14:05.350Z,1.0133
2019-04-05T01:14:16.521Z,1.0209
2019-04-05T01:14:27.661Z,1.0297
2019-04-05T01:14:38.821Z,1.0342
2019-04-05T01:14:50.033Z,1.0392
2019-04-05T01:15:01.190Z,1.0412
2019-04-05T01:15:12.349Z,1.0424
2019-04-05T01:15:23.497Z,1.0443
2019-04-05T01:15:40.744Z,1.0456
2019-04-05T01:15:50.753Z,1.0477
2019-04-05T01:16:01.909Z,1.0526
2019-04-05T01:16:13.083Z,1.0547
2019-04-05T01:16:24.231Z,1.0591
2019-04-05T01:16:35.389Z,1.0673
2019-04-05T01:16:46.567Z,1.0718
2019-04-05T01:16:57.736Z,1.0745
2019-04-05T01:17:07.893Z,1.0767
2019-04-05T01:17:24.885Z,1.0779
2019-04-05T01:17:35.165Z,1.0745
2019-04-05T01:17:46.329Z,1.0836
2019-04-05T01:17:57.485Z,1.0893
2019-04-05T01:18:08.633Z,1.0923
2019-04-05T01:18:19.781Z,1.1007
2019-04-05T01:18:30.942Z,1.1121
2019-04-05T01:18:42.100Z,1.1202
2019-04-05T01:18:53.256Z,1.1309
2019-04-05T01:19:04.443Z,1.1372
2019-04-05T01:19:15.596Z,1.1410
2019-04-05T01:19:26.748Z,1.1468
2019-04-05T01:19:37.909Z,1.1559
2019-04-05T01:19:49.055Z,1.1654
2019-04-05T01:20:00.211Z,1.1721
2019-04-05T01:20:11.375Z,1.1773
2019-04-05T01:20:22.554Z,1.1817
2019-04-05T01:20:33.706Z,1.1858
2019-04-05T01:20:44.856Z,1.1905
2019-04-05T01:20:56.003Z,1.1954
2019-04-05T01:21:07.163Z,1.2005
2019-04-05T01:21:18.303Z,1.2017
2019-04-05T01:21:29.465Z,1.2035
2019-04-05T01:21:41.650Z,1.2070
2019-04-05T01:21:52.813Z,1.2075
2019-04-05T01:22:02.965Z,1.2128
2019-04-05T01:22:14.130Z,1.2202
2019-04-05T01:22:25.322Z,1.2234
2019-04-05T01:22:36.512Z,1.2260
2019-04-05T01:22:47.671Z,1.2284
2019-04-05T01:22:58.816Z,1.2319
2019-04-05T01:23:09.983Z,1.2329
2019-04-05T01:23:21.159Z,1.2372
2019-04-05T01:23:32.333Z,1.2409
2019-04-05T01:23:43.493Z,1.2472
2019-04-05T01:23:54.635Z,1.2520
2019-04-05T01:24:05.790Z,1.2587
2019-04-05T01:24:16.933Z,1.2614
2019-04-05T01:24:28.103Z,1.2646
2019-04-05T01:24:39.279Z,1.2657
2019-04-05T01:24:50.423Z,1.2695
2019-04-05T01:25:01.571Z,1.2711
2019-04-05T01:25:11.731Z,1.2722
2019-04-05T01:25:22.899Z,1.2766
2019-04-05T01:25:34.069Z,1.2733
2019-04-05T01:25:45.231Z,1.2707
2019-04-05T01:25:55.384Z,1.2694
2019-04-05T01:26:06.535Z,1.2660
2019-04-05T01:26:17.703Z,1.2600
2019-04-05T01:26:28.851Z,1.2538
2019-04-05T01:26:40.011Z,1.2470
2019-04-05T01:26:51.172Z,1.2419
2019-04-05T01:27:02.345Z,1.2399
2019-04-05T01:27:13.502Z,1.2347
2019-04-05T01:27:24.653Z,1.2299
2019-04-05T01:27:35.803Z,1.2244
2019-04-05T01:27:48.433Z,1.2223
2019-04-05T01:27:59.814Z,1.2133
2019-04-05T01:28:10.973Z,1.2115
2019-04-05T01:28:22.144Z,1.2035
2019-04-05T01:28:33.347Z,1.1996
2019-04-05T01:28:44.502Z,1.1934
2019-04-05T01:28:55.667Z,1.1879
2019-04-05T01:29:06.831Z,1.1802
2019-04-05T01:29:17.976Z,1.1767
2019-04-05T01:29:29.127Z,1.1741
2019-04-05T01:29:40.289Z,1.1707
2019-04-05T01:29:51.441Z,1.1693
2019-04-05T01:30:02.583Z,1.1706
2019-04-05T01:30:13.738Z,1.1682
2019-04-05T01:30:24.897Z,1.1690
2019-04-05T01:30:36.050Z,1.1714
2019-04-05T01:30:47.231Z,1.1707
2019-04-05T01:30:58.378Z,1.1730
2019-04-05T01:31:09.543Z,1.1727
2019-04-05T01:31:20.701Z,1.1709
2019-04-05T01:31:31.869Z,1.1742
2019-04-05T01:31:43.019Z,1.1715
2019-04-05T01:31:54.167Z,1.1746
2019-04-05T01:32:05.330Z,1.1738
2019-04-05T01:32:16.473Z,1.1782
2019-04-05T01:32:27.643Z,1.1769
2019-04-05T01:32:38.803Z,1.1824
2019-04-05T01:32:49.950Z,1.1833
2019-04-05T01:33:01.121Z,1.1846
2019-04-05T01:33:12.284Z,1.1872
2019-04-05T01:33:23.455Z,1.1879
2019-04-05T01:33:34.603Z,1.1903
2019-04-05T01:33:45.891Z,1.1883
2019-04-05T01:33:57.061Z,1.1894
2019-04-05T01:34:08.220Z,1.1855
2019-04-05T01:34:19.383Z,1.1857
2019-04-05T01:34:30.545Z,1.1874
2019-04-05T01:34:41.685Z,1.1810
2019-04-05T01:34:52.861Z,1.1773
2019-04-05T01:35:04.037Z,1.1682
2019-04-05T01:35:15.193Z,1.1595
2019-04-05T01:35:26.362Z,1.1518
2019-04-05T01:35:37.511Z,1.1449
2019-04-05T01:35:48.663Z,1.1378
2019-04-05T01:35:59.829Z,1.1300
2019-04-05T01:36:10.993Z,1.1203
2019-04-05T01:36:22.147Z,1.1142
2019-04-05T01:36:33.305Z,1.1076
2019-04-05T01:36:44.463Z,1.0987
2019-04-05T01:36:55.605Z,1.0861
2019-04-05T01:37:06.756Z,1.0775
2019-04-05T01:37:17.917Z,1.0706
2019-04-05T01:37:29.063Z,1.0611
2019-04-05T01:37:40.221Z,1.0569
2019-04-05T01:37:51.365Z,1.0538
2019-04-05T01:38:02.513Z,1.0492
2019-04-05T01:38:13.673Z,1.0459
2019-04-05T01:38:24.812Z,1.0442
2019-04-05T01:38:35.966Z,1.0410
2019-04-05T01:38:46.135Z,1.0406
2019-04-05T01:38:57.317Z,1.0407
2019-04-05T01:39:07.511Z,1.0368
2019-04-05T01:39:18.729Z,1.0405
2019-04-05T01:39:29.933Z,1.0389
2019-04-05T01:39:41.119Z,1.0408
2019-04-05T01:39:52.289Z,1.0421
2019-04-05T01:40:03.482Z,1.0450
2019-04-05T01:40:14.671Z,1.0457
2019-04-05T01:40:25.839Z,1.0465
2019-04-05T01:40:36.998Z,1.0494
2019-04-05T01:40:48.144Z,1.0527
2019-04-05T01:40:59.295Z,1.0569
2019-04-05T01:41:10.487Z,1.0627
2019-04-05T01:41:21.649Z,1.0736
2019-04-05T01:41:32.801Z,1.0815
2019-04-05T01:41:43.951Z,1.0903
2019-04-05T01:41:55.102Z,1.1021
2019-04-05T01:42:06.255Z,1.1131
2019-04-05T01:42:17.407Z,1.1191
2019-04-05T01:42:28.565Z,1.1280
2019-04-05T01:42:39.723Z,1.1275
2019-04-05T01:42:50.862Z,1.1316
2019-04-05T01:43:02.008Z,1.1321
2019-04-05T01:43:13.163Z,1.1340
2019-04-05T01:43:24.313Z,1.1337
2019-04-05T01:43:35.455Z,1.1309
2019-04-05T01:43:46.604Z,1.1313
2019-04-05T01:43:57.754Z,1.1300
2019-04-05T01:44:08.920Z,1.1292
2019-04-05T01:44:20.071Z,1.1250
2019-04-05T01:44:31.225Z,1.1241
2019-04-05T01:44:42.391Z,1.1224
2019-04-05T01:44:53.533Z,1.1208
2019-04-05T01:45:04.708Z,1.1169
2019-04-05T01:45:15.861Z,1.1134
2019-04-05T01:45:27.013Z,1.1098
2019-04-05T01:45:38.194Z,1.1036
2019-04-05T01:45:53.898Z,1.0969
2019-04-05T01:46:05.402Z,1.0859
2019-04-05T01:46:16.541Z,1.0848
2019-04-05T01:46:27.685Z,1.0797
2019-04-05T01:46:37.833Z,1.0750
2019-04-05T01:46:48.994Z,1.0701
2019-04-05T01:47:00.151Z,1.0583
2019-04-05T01:47:10.310Z,1.0506
2019-04-05T01:47:21.454Z,1.0483
2019-04-05T01:47:32.606Z,1.0424
2019-04-05T01:47:43.763Z,1.0351
2019-04-05T01:47:54.924Z,1.0288
2019-04-05T01:48:06.076Z,1.0200
2019-04-05T01:48:17.243Z,1.0149
2019-04-05T01:48:28.393Z,1.0099
2019-04-05T01:48:39.543Z,1.0041
2019-04-05T01:48:49.693Z,0.9991
2019-04-05T01:49:00.853Z,0.9979
2019-04-05T01:49:12.063Z,0.9945
2019-04-05T01:49:23.330Z,0.9883
2019-04-05T01:49:34.493Z,0.9873
2019-04-05T01:49:45.660Z,0.9872
2019-04-05T01:49:56.798Z,0.9827
2019-04-05T01:50:07.953Z,0.9802
2019-04-05T01:50:19.166Z,0.9791
2019-04-05T01:50:30.333Z,0.9807
2019-04-05T01:50:41.484Z,0.9815
2019-04-05T01:50:52.636Z,0.9853
2019-04-05T01:51:03.813Z,0.9890
2019-04-05T01:51:14.981Z,0.9891
2019-04-05T01:51:25.133Z,0.9927
2019-04-05T01:51:36.278Z,0.9949
2019-04-05T01:51:47.427Z,0.9957
2019-04-05T01:51:58.592Z,0.9951
2019-04-05T01:52:09.742Z,0.9956
2019-04-05T01:52:20.883Z,0.9966
2019-04-05T01:52:32.098Z,0.9969
2019-04-05T01:52:42.303Z,0.9966
2019-04-05T01:52:53.453Z,1.0017
2019-04-05T01:53:04.604Z,0.9994
2019-04-05T01:53:15.765Z,0.9975
2019-04-05T01:53:27.022Z,0.9959
2019-04-05T01:53:38.167Z,0.9940
2019-04-05T01:53:48.352Z,0.9921
2019-04-05T01:54:00.302Z,0.9945
2019-04-05T01:54:11.472Z,0.9916
2019-04-05T01:54:22.693Z,0.9900
2019-04-05T01:54:33.862Z,0.9888
2019-04-05T01:54:45.011Z,0.9887
2019-04-05T01:54:56.183Z,0.9920
2019-04-05T01:55:07.337Z,0.9949
2019-04-05T01:55:18.643Z,1.0008
2019-04-05T01:55:29.803Z,1.0125
2019-04-05T01:55:40.953Z,1.0204
2019-04-05T01:55:52.104Z,1.0251
2019-04-05T01:56:03.280Z,1.0308
2019-04-05T01:56:14.426Z,1.0361
2019-04-05T01:56:25.586Z,1.0406
2019-04-05T01:56:36.763Z,1.0419
2019-04-05T01:56:47.949Z,1.0442
2019-04-05T01:56:59.130Z,1.0467
2019-04-05T01:57:10.273Z,1.0489
2019-04-05T01:57:22.224Z,1.0492
2019-04-05T01:57:33.397Z,1.0505
2019-04-05T01:57:44.553Z,1.0523
2019-04-05T01:57:55.842Z,1.0526
2019-04-05T01:58:07.047Z,1.0509
2019-04-05T01:58:18.251Z,1.0479
2019-04-05T01:58:29.415Z,1.0481
2019-04-05T01:58:40.655Z,1.0478
2019-04-05T01:58:51.871Z,1.0529
2019-04-05T01:59:03.040Z,1.0619
2019-04-05T01:59:14.193Z,1.0731
2019-04-05T01:59:25.351Z,1.0839
2019-04-05T01:59:39.331Z,1.0912
2019-04-05T01:59:50.489Z,1.1050
2019-04-05T02:00:01.648Z,1.1277
2019-04-05T02:00:12.811Z,1.1422
2019-04-05T02:00:23.969Z,1.1509
2019-04-05T02:00:35.119Z,1.1651
2019-04-05T02:00:46.261Z,1.1772
2019-04-05T02:00:57.406Z,1.1877
2019-04-05T02:01:08.563Z,1.1942
2019-04-05T02:01:19.713Z,1.1966
2019-04-05T02:01:30.881Z,1.2029
2019-04-05T02:01:42.037Z,1.2048
2019-04-05T02:01:53.194Z,1.2086
2019-04-05T02:02:04.346Z,1.2080
2019-04-05T02:02:15.497Z,1.2098
2019-04-05T02:02:26.661Z,1.2083
2019-04-05T02:02:37.821Z,1.2061
2019-04-05T02:02:47.987Z,1.2047
2019-04-05T02:02:59.157Z,1.2056
2019-04-05T02:03:10.303Z,1.2013
2019-04-05T02:03:21.463Z,1.2018
2019-04-05T02:03:32.613Z,1.2000
2019-04-05T02:03:43.781Z,1.1962
2019-04-05T02:03:53.965Z,1.1855
2019-04-05T02:04:05.198Z,1.1846
2019-04-05T02:04:16.395Z,1.1808
2019-04-05T02:04:27.565Z,1.1807
2019-04-05T02:04:38.731Z,1.1843
2019-04-05T02:04:52.641Z,1.1852
2019-04-05T02:05:04.127Z,1.1847
2019-04-05T02:05:15.283Z,1.1980
2019-04-05T02:05:26.426Z,1.2019
2019-04-05T02:05:37.594Z,1.2064
2019-04-05T02:05:47.743Z,1.2117
2019-04-05T02:05:58.894Z,1.2148
2019-04-05T02:06:10.055Z,1.2151
2019-04-05T02:06:21.204Z,1.2169
2019-04-05T02:06:32.360Z,1.2156
2019-04-05T02:06:43.517Z,1.2111
2019-04-05T02:06:54.671Z,1.2025
2019-04-05T02:07:05.813Z,1.1998
2019-04-05T02:07:16.962Z,1.1960
2019-04-05T02:07:28.123Z,1.1947
2019-04-05T02:07:39.283Z,1.1942
2019-04-05T02:07:50.455Z,1.1987
2019-04-05T02:08:01.619Z,1.1967
2019-04-05T02:08:12.773Z,1.1859
2019-04-05T02:08:23.950Z,1.1810
2019-04-05T02:08:35.095Z,1.1777
2019-04-05T02:08:46.262Z,1.1799
2019-04-05T02:08:57.427Z,1.1797
2019-04-05T02:09:07.593Z,1.1779
2019-04-05T02:09:18.741Z,1.1808
2019-04-05T02:09:29.887Z,1.1788
2019-04-05T02:09:41.043Z,1.1801
2019-04-05T02:09:52.203Z,1.1777
2019-04-05T02:10:03.348Z,1.1749
2019-04-05T02:10:14.503Z,1.1742
2019-04-05T02:10:25.661Z,1.1718
2019-04-05T02:10:36.823Z,1.1687
2019-04-05T02:10:47.997Z,1.1676
2019-04-05T02:10:59.163Z,1.1607
2019-04-05T02:11:10.323Z,1.1519
2019-04-05T02:11:21.477Z,1.1444
2019-04-05T02:11:32.622Z,1.1352
2019-04-05T02:11:43.783Z,1.1227
2019-04-05T02:11:54.931Z,1.1096
2019-04-05T02:12:06.074Z,1.1011
2019-04-05T02:12:17.237Z,1.0956
2019-04-05T02:12:28.391Z,1.0919
2019-04-05T02:12:39.543Z,1.0896
2019-04-05T02:12:50.683Z,1.0894
2019-04-05T02:13:01.852Z,1.0919
2019-04-05T02:13:13.023Z,1.0901
2019-04-05T02:13:24.193Z,1.0947
2019-04-05T02:13:34.366Z,1.0958
2019-04-05T02:13:45.526Z,1.0987
2019-04-05T02:13:56.818Z,1.0969
2019-04-05T02:14:07.970Z,1.0927
2019-04-05T02:14:19.114Z,1.0913
2019-04-05T02:14:30.285Z,1.0910
2019-04-05T02:14:41.432Z,1.0891
2019-04-05T02:14:52.583Z,1.0928
2019-04-05T02:15:03.753Z,1.0920
2019-04-05T02:15:14.904Z,1.1014
2019-04-05T02:15:26.061Z,1.1070
2019-04-05T02:15:37.237Z,1.1115
2019-04-05T02:15:48.385Z,1.1158
2019-04-05T02:16:06.254Z,1.1177
2019-04-05T02:16:15.703Z,1.1158
2019-04-05T02:16:26.856Z,1.1212
2019-04-05T02:16:38.006Z,1.1217
2019-04-05T02:16:49.167Z,1.1228
2019-04-05T02:17:00.313Z,1.1195
2019-04-05T02:17:11.486Z,1.1193
2019-04-05T02:17:22.655Z,1.1186
2019-04-05T02:17:35.878Z,1.1184
2019-04-05T02:17:47.337Z,1.1168
2019-04-05T02:17:58.506Z,1.1179
2019-04-05T02:18:09.665Z,1.1170
2019-04-05T02:18:20.821Z,1.1140
2019-04-05T02:18:31.965Z,1.1101
2019-04-05T02:18:43.134Z,1.1115
2019-04-05T02:18:54.281Z,1.1118
2019-04-05T02:19:05.423Z,1.1110
2019-04-05T02:19:16.567Z,1.1102
2019-04-05T02:19:27.717Z,1.1107